Marl-Loemühle Airfield

METAR EDLW TAF EDLW
4 °C
°C
-
°C
23m
Âge
20:42:54
LT
19:42
UTC
0 ft

1.000

2.000

3.000

4.000

5.000

FEW 2.100
SCT 2.400
BKN 3.300
VFR
<?= Yii::t('app', 'Wind direction') ?> <?= Yii::t('app', 'of'); ?>
080°
08:03
Lever du soleil
87%
Humidité
Cisaillement du vent
Fermé/neige
Portée visuelle RWY
Condition RWY
Visibilité vert.
Visibilité min.
CAVOK
Tendance
Correction
Rapport spécial
1037 hPa
QNH
METAR EDLW 041920Z 08003KT 9999 FEW021 SCT024 BKN033 04/02 Q1037
Fragmenté
1 kt
1 kt
20:00
VFR
3 kt
21:00
VFR
3 kt
22:00
VFR
3 kt
23:00
VFR
6 kt
00:00
VFR
6 kt
01:00
VFR
6 kt
02:00
VFR
6 kt
10 km+
Vue
3.300 ft
Base cloud
3 kt
Vent
metar-taf.com/EDLM

Metar-Taf.com

Décodeur visuel

Nous et des tiers suivons ton comportement Internet sur notre site Web à l'aide de cookies. Si tu continues, nous supposons que tu es d'accord avec notre Politique en matière de cookies.